sensor_id;sensor_type;location;lat;lon;timestamp;temperature;humidity
66150;DHT22;52952;50.904;20.648;2022-08-01T00:00:14;23;85
66150;DHT22;52952;50.904;20.648;2022-08-01T00:07:02;25;80
66150;DHT22;52952;50.904;20.648;2022-08-01T00:14:06;25;80
66150;DHT22;52952;50.904;20.648;2022-08-01T00:21:03;25;80
66150;DHT22;52952;50.904;20.648;2022-08-01T00:28:03;25;80
66150;DHT22;52952;50.904;20.648;2022-08-01T00:35:16;24;82
66150;DHT22;52952;50.904;20.648;2022-08-01T00:42:13;24;82
66150;DHT22;52952;50.904;20.648;2022-08-01T00:49:02;24;82
66150;DHT22;52952;50.904;20.648;2022-08-01T00:56:08;24;82
66150;DHT22;52952;50.904;20.648;2022-08-01T01:00:24;24;82
66150;DHT22;52952;50.904;20.648;2022-08-01T01:28:57;23;84
66150;DHT22;52952;50.904;20.648;2022-08-01T01:35:17;24;87
66150;DHT22;52952;50.904;20.648;2022-08-01T01:42:08;24;87
66150;DHT22;52952;50.904;20.648;2022-08-01T01:49:19;24;87
66150;DHT22;52952;50.904;20.648;2022-08-01T01:56:19;24;87
66150;DHT22;52952;50.904;20.648;2022-08-01T02:00:32;24;87
66150;DHT22;52952;50.904;20.648;2022-08-01T02:07:22;23;87
66150;DHT22;52952;50.904;20.648;2022-08-01T02:14:18;23;87
66150;DHT22;52952;50.904;20.648;2022-08-01T02:21:40;23;87
66150;DHT22;52952;50.904;20.648;2022-08-01T02:28:42;23;87
66150;DHT22;52952;50.904;20.648;2022-08-01T02:35:13;23;88
66150;DHT22;52952;50.904;20.648;2022-08-01T02:42:34;23;88
66150;DHT22;52952;50.904;20.648;2022-08-01T02:49:35;23;88
66150;DHT22;52952;50.904;20.648;2022-08-01T02:56:35;23;88
66150;DHT22;52952;50.904;20.648;2022-08-01T03:00:32;23;88
66150;DHT22;52952;50.904;20.648;2022-08-01T03:07:31;23;86
66150;DHT22;52952;50.904;20.648;2022-08-01T03:14:42;23;86
66150;DHT22;52952;50.904;20.648;2022-08-01T03:21:18;23;86
66150;DHT22;52952;50.904;20.648;2022-08-01T03:28:15;23;86
66150;DHT22;52952;50.904;20.648;2022-08-01T03:42:07;23;88
66150;DHT22;52952;50.904;20.648;2022-08-01T03:49:30;23;88
66150;DHT22;52952;50.904;20.648;2022-08-01T03:56:03;23;88
66150;DHT22;52952;50.904;20.648;2022-08-01T04:00:20;23;88
66150;DHT22;52952;50.904;20.648;2022-08-01T04:07:29;24;86
66150;DHT22;52952;50.904;20.648;2022-08-01T04:14:07;24;86
66150;DHT22;52952;50.904;20.648;2022-08-01T04:21:13;24;86
66150;DHT22;52952;50.904;20.648;2022-08-01T04:28:39;24;86
66150;DHT22;52952;50.904;20.648;2022-08-01T04:42:15;24;87
66150;DHT22;52952;50.904;20.648;2022-08-01T04:49:22;24;87
66150;DHT22;52952;50.904;20.648;2022-08-01T04:56:17;24;87
66150;DHT22;52952;50.904;20.648;2022-08-01T05:00:03;24;87
66150;DHT22;52952;50.904;20.648;2022-08-01T05:07:03;23;87
66150;DHT22;52952;50.904;20.648;2022-08-01T05:14:15;23;87
66150;DHT22;52952;50.904;20.648;2022-08-01T05:21:04;23;87
66150;DHT22;52952;50.904;20.648;2022-08-01T05:28:03;23;87
66150;DHT22;52952;50.904;20.648;2022-08-01T05:35:22;23;88
66150;DHT22;52952;50.904;20.648;2022-08-01T05:42:03;23;88
66150;DHT22;52952;50.904;20.648;2022-08-01T05:49:03;23;88
66150;DHT22;52952;50.904;20.648;2022-08-01T05:56:20;23;88
66150;DHT22;52952;50.904;20.648;2022-08-01T06:00:21;23;88
66150;DHT22;52952;50.904;20.648;2022-08-01T06:07:04;22;91
66150;DHT22;52952;50.904;20.648;2022-08-01T06:14:17;22;91
66150;DHT22;52952;50.904;20.648;2022-08-01T06:21:15;22;91
66150;DHT22;52952;50.904;20.648;2022-08-01T06:28:13;22;91
66150;DHT22;52952;50.904;20.648;2022-08-01T06:35:19;23;90
66150;DHT22;52952;50.904;20.648;2022-08-01T06:42:02;23;90
66150;DHT22;52952;50.904;20.648;2022-08-01T06:49:20;23;90
66150;DHT22;52952;50.904;20.648;2022-08-01T06:56:09;23;90
66150;DHT22;52952;50.904;20.648;2022-08-01T07:00:20;23;90
66150;DHT22;52952;50.904;20.648;2022-08-01T07:14:04;22;91
66150;DHT22;52952;50.904;20.648;2022-08-01T07:21:15;22;91
66150;DHT22;52952;50.904;20.648;2022-08-01T07:28:02;22;91
66150;DHT22;52952;50.904;20.648;2022-08-01T07:42:13;22;92
66150;DHT22;52952;50.904;20.648;2022-08-01T07:49:04;22;92
66150;DHT22;52952;50.904;20.648;2022-08-01T07:56:02;22;92
66150;DHT22;52952;50.904;20.648;2022-08-01T08:00:10;22;92
66150;DHT22;52952;50.904;20.648;2022-08-01T08:14:04;22;91
66150;DHT22;52952;50.904;20.648;2022-08-01T08:21:13;22;91
66150;DHT22;52952;50.904;20.648;2022-08-01T08:28:17;22;91
66150;DHT22;52952;50.904;20.648;2022-08-01T08:35:21;22;91
66150;DHT22;52952;50.904;20.648;2022-08-01T08:42:08;22;91
66150;DHT22;52952;50.904;20.648;2022-08-01T08:49:06;22;91
66150;DHT22;52952;50.904;20.648;2022-08-01T08:56:26;22;91
66150;DHT22;52952;50.904;20.648;2022-08-01T09:00:25;22;91
66150;DHT22;52952;50.904;20.648;2022-08-01T09:14:27;22;91
66150;DHT22;52952;50.904;20.648;2022-08-01T09:21:36;22;91
66150;DHT22;52952;50.904;20.648;2022-08-01T09:28:29;22;91
66150;DHT22;52952;50.904;20.648;2022-08-01T09:35:27;22;91
66150;DHT22;52952;50.904;20.648;2022-08-01T09:42:26;22;92
66150;DHT22;52952;50.904;20.648;2022-08-01T09:49:07;22;92
66150;DHT22;52952;50.904;20.648;2022-08-01T09:56:15;22;92
66150;DHT22;52952;50.904;20.648;2022-08-01T10:00:34;22;92
66150;DHT22;52952;50.904;20.648;2022-08-01T10:14:02;22;92
66150;DHT22;52952;50.904;20.648;2022-08-01T10:21:03;22;92
66150;DHT22;52952;50.904;20.648;2022-08-01T10:28:25;22;92
66150;DHT22;52952;50.904;20.648;2022-08-01T10:35:09;22;92
66150;DHT22;52952;50.904;20.648;2022-08-01T10:42:25;22;92
66150;DHT22;52952;50.904;20.648;2022-08-01T10:49:26;22;92
66150;DHT22;52952;50.904;20.648;2022-08-01T10:56:03;22;92
66150;DHT22;52952;50.904;20.648;2022-08-01T11:00:23;22;92
66150;DHT22;52952;50.904;20.648;2022-08-01T11:07:18;22;92
66150;DHT22;52952;50.904;20.648;2022-08-01T11:14:09;21;94
66150;DHT22;52952;50.904;20.648;2022-08-01T11:21:02;21;94
66150;DHT22;52952;50.904;20.648;2022-08-01T11:28:42;21;94
66150;DHT22;52952;50.904;20.648;2022-08-01T11:35:28;21;94
66150;DHT22;52952;50.904;20.648;2022-08-01T11:42:18;21;93
66150;DHT22;52952;50.904;20.648;2022-08-01T11:56:07;21;93
66150;DHT22;52952;50.904;20.648;2022-08-01T12:00:23;21;93
66150;DHT22;52952;50.904;20.648;2022-08-01T12:07:35;21;93
66150;DHT22;52952;50.904;20.648;2022-08-01T12:14:07;22;94
66150;DHT22;52952;50.904;20.648;2022-08-01T12:21:07;22;94
66150;DHT22;52952;50.904;20.648;2022-08-01T12:28:08;22;94
66150;DHT22;52952;50.904;20.648;2022-08-01T12:35:24;22;94
66150;DHT22;52952;50.904;20.648;2022-08-01T12:42:13;22;93
66150;DHT22;52952;50.904;20.648;2022-08-01T12:49:03;22;93
66150;DHT22;52952;50.904;20.648;2022-08-01T12:56:05;22;93
66150;DHT22;52952;50.904;20.648;2022-08-01T13:00:20;22;93
66150;DHT22;52952;50.904;20.648;2022-08-01T13:07:17;22;93
66150;DHT22;52952;50.904;20.648;2022-08-01T13:14:29;23;92
66150;DHT22;52952;50.904;20.648;2022-08-01T13:21:11;23;92
66150;DHT22;52952;50.904;20.648;2022-08-01T13:28:36;23;92
66150;DHT22;52952;50.904;20.648;2022-08-01T13:35:11;23;92
66150;DHT22;52952;50.904;20.648;2022-08-01T13:49:20;23;90
66150;DHT22;52952;50.904;20.648;2022-08-01T13:56:04;23;90
66150;DHT22;52952;50.904;20.648;2022-08-01T14:00:21;23;90
66150;DHT22;52952;50.904;20.648;2022-08-01T14:07:15;23;90
66150;DHT22;52952;50.904;20.648;2022-08-01T14:21:06;24;89
66150;DHT22;52952;50.904;20.648;2022-08-01T14:28:20;24;89
66150;DHT22;52952;50.904;20.648;2022-08-01T14:35:13;24;89
66150;DHT22;52952;50.904;20.648;2022-08-01T14:49:20;24;89
66150;DHT22;52952;50.904;20.648;2022-08-01T14:56:05;24;89
66150;DHT22;52952;50.904;20.648;2022-08-01T15:00:17;24;89
66150;DHT22;52952;50.904;20.648;2022-08-01T15:07:02;24;89
66150;DHT22;52952;50.904;20.648;2022-08-01T15:21:14;24;89
66150;DHT22;52952;50.904;20.648;2022-08-01T15:28:18;24;89
66150;DHT22;52952;50.904;20.648;2022-08-01T15:35:18;24;89
66150;DHT22;52952;50.904;20.648;2022-08-01T15:49:14;24;89
66150;DHT22;52952;50.904;20.648;2022-08-01T15:56:18;24;89
66150;DHT22;52952;50.904;20.648;2022-08-01T16:00:03;24;89
66150;DHT22;52952;50.904;20.648;2022-08-01T16:07:04;24;89
66150;DHT22;52952;50.904;20.648;2022-08-01T16:21:04;24;91
66150;DHT22;52952;50.904;20.648;2022-08-01T16:28:17;24;91
66150;DHT22;52952;50.904;20.648;2022-08-01T16:35:07;24;91
66150;DHT22;52952;50.904;20.648;2022-08-01T16:49:05;24;92
66150;DHT22;52952;50.904;20.648;2022-08-01T16:56:20;24;92
66150;DHT22;52952;50.904;20.648;2022-08-01T17:00:17;24;92
66150;DHT22;52952;50.904;20.648;2022-08-01T17:07:03;24;92
66150;DHT22;52952;50.904;20.648;2022-08-01T17:21:07;25;90
66150;DHT22;52952;50.904;20.648;2022-08-01T17:28:19;25;90
66150;DHT22;52952;50.904;20.648;2022-08-01T17:35:04;25;90
66150;DHT22;52952;50.904;20.648;2022-08-01T17:49:02;25;88
66150;DHT22;52952;50.904;20.648;2022-08-01T17:56:19;25;88
66150;DHT22;52952;50.904;20.648;2022-08-01T18:00:15;25;88
66150;DHT22;52952;50.904;20.648;2022-08-01T18:07:18;25;88
66150;DHT22;52952;50.904;20.648;2022-08-01T18:21:18;25;88
66150;DHT22;52952;50.904;20.648;2022-08-01T18:28:13;25;88
66150;DHT22;52952;50.904;20.648;2022-08-01T18:35:20;25;88
66150;DHT22;52952;50.904;20.648;2022-08-01T18:49:07;22;70
66150;DHT22;52952;50.904;20.648;2022-08-01T18:56:13;22;70
66150;DHT22;52952;50.904;20.648;2022-08-01T19:00:17;22;70
66150;DHT22;52952;50.904;20.648;2022-08-01T19:07:18;22;70
66150;DHT22;52952;50.904;20.648;2022-08-01T19:21:18;25;83
66150;DHT22;52952;50.904;20.648;2022-08-01T19:28:26;25;83
66150;DHT22;52952;50.904;20.648;2022-08-01T19:35:16;25;83
66150;DHT22;52952;50.904;20.648;2022-08-01T19:42:12;25;83
66150;DHT22;52952;50.904;20.648;2022-08-01T19:49:21;25;87
66150;DHT22;52952;50.904;20.648;2022-08-01T19:56:25;25;87
66150;DHT22;52952;50.904;20.648;2022-08-01T20:00:01;25;87
66150;DHT22;52952;50.904;20.648;2022-08-01T20:07:18;25;87
66150;DHT22;52952;50.904;20.648;2022-08-01T20:21:10;24;90
66150;DHT22;52952;50.904;20.648;2022-08-01T20:28:35;24;90
66150;DHT22;52952;50.904;20.648;2022-08-01T20:35:09;24;90
66150;DHT22;52952;50.904;20.648;2022-08-01T20:42:15;24;90
66150;DHT22;52952;50.904;20.648;2022-08-01T20:49:04;24;91
66150;DHT22;52952;50.904;20.648;2022-08-01T20:56:28;24;91
66150;DHT22;52952;50.904;20.648;2022-08-01T21:00:24;24;91
66150;DHT22;52952;50.904;20.648;2022-08-01T21:07:30;24;91
66150;DHT22;52952;50.904;20.648;2022-08-01T21:21:21;25;89
66150;DHT22;52952;50.904;20.648;2022-08-01T21:28:04;25;89
66150;DHT22;52952;50.904;20.648;2022-08-01T21:35:22;25;89
66150;DHT22;52952;50.904;20.648;2022-08-01T21:42:18;25;89
66150;DHT22;52952;50.904;20.648;2022-08-01T21:49:20;25;88
66150;DHT22;52952;50.904;20.648;2022-08-01T21:56:38;25;88
66150;DHT22;52952;50.904;20.648;2022-08-01T22:00:11;25;88
66150;DHT22;52952;50.904;20.648;2022-08-01T22:07:46;25;88
66150;DHT22;52952;50.904;20.648;2022-08-01T22:14:53;24;88
66150;DHT22;52952;50.904;20.648;2022-08-01T22:21:03;24;88
66150;DHT22;52952;50.904;20.648;2022-08-01T22:28:20;24;88
66150;DHT22;52952;50.904;20.648;2022-08-01T22:35:15;24;88
66150;DHT22;52952;50.904;20.648;2022-08-01T22:42:52;24;88
66150;DHT22;52952;50.904;20.648;2022-08-01T22:49:47;24;88
66150;DHT22;52952;50.904;20.648;2022-08-01T22:56:06;24;88
66150;DHT22;52952;50.904;20.648;2022-08-01T23:07:46;24;88
66150;DHT22;52952;50.904;20.648;2022-08-01T23:14:22;24;88
66150;DHT22;52952;50.904;20.648;2022-08-01T23:21:19;24;88
66150;DHT22;52952;50.904;20.648;2022-08-01T23:28:05;24;88
66150;DHT22;52952;50.904;20.648;2022-08-01T23:35:22;25;85
66150;DHT22;52952;50.904;20.648;2022-08-01T23:42:03;25;85
66150;DHT22;52952;50.904;20.648;2022-08-01T23:49:05;25;85
66150;DHT22;52952;50.904;20.648;2022-08-01T23:56:15;25;85
